createdAt,value
2023-04-16T00:00:28.567Z,21.52
2023-04-16T00:01:29.996Z,21.35
2023-04-16T00:02:31.565Z,21.25
2023-04-16T00:03:33.669Z,20.92
2023-04-16T00:04:35.572Z,21.67
2023-04-16T00:05:37.131Z,21.60
2023-04-16T00:06:38.574Z,23.75
2023-04-16T00:07:40.935Z,22.92
2023-04-16T00:08:43.526Z,21.05
2023-04-16T00:09:44.961Z,20.77
2023-04-16T00:10:46.434Z,21.17
2023-04-16T00:11:47.848Z,19.65
2023-04-16T00:12:49.265Z,19.55
2023-04-16T00:13:50.714Z,20.40
2023-04-16T00:14:52.118Z,20.75
2023-04-16T00:15:53.565Z,20.27
2023-04-16T00:16:54.995Z,20.50
2023-04-16T00:17:56.519Z,20.10
2023-04-16T00:18:57.965Z,20.98
2023-04-16T00:19:59.437Z,21.23
2023-04-16T00:21:00.891Z,22.85
2023-04-16T00:22:02.389Z,22.73
2023-04-16T00:23:03.860Z,22.70
2023-04-16T00:24:05.343Z,21.95
2023-04-16T00:25:07.009Z,22.02
2023-04-16T00:26:09.190Z,21.45
2023-04-16T00:27:10.725Z,21.10
2023-04-16T00:28:12.196Z,21.65
2023-04-16T00:29:13.619Z,22.08
2023-04-16T00:30:15.032Z,22.52
2023-04-16T00:31:16.504Z,23.40
2023-04-16T00:32:18.022Z,23.08
2023-04-16T00:33:19.524Z,21.85
2023-04-16T00:34:20.985Z,21.55
2023-04-16T00:35:22.443Z,21.38
2023-04-16T00:36:24.819Z,22.23
2023-04-16T00:37:26.269Z,20.92
2023-04-16T00:38:30.331Z,21.83
2023-04-16T00:39:31.891Z,22.67
2023-04-16T00:40:33.308Z,22.75
2023-04-16T00:41:34.783Z,21.80
2023-04-16T00:42:37.036Z,22.17
2023-04-16T00:43:38.421Z,21.55
2023-04-16T00:44:39.854Z,22.90
2023-04-16T00:45:41.289Z,22.98
2023-04-16T00:46:43.091Z,23.05
2023-04-16T00:47:45.179Z,23.35
2023-04-16T00:48:47.291Z,22.30
2023-04-16T00:49:49.097Z,21.90
2023-04-16T00:50:50.602Z,21.60
2023-04-16T00:51:52.099Z,21.67
2023-04-16T00:52:53.542Z,21.92
2023-04-16T00:53:55.338Z,21.95
2023-04-16T00:57:27.968Z,21.27
2023-04-16T00:58:30.388Z,20.45
2023-04-16T00:59:32.505Z,21.02
2023-04-16T01:01:35.288Z,21.73
2023-04-16T01:02:37.290Z,23.15
2023-04-16T01:03:43.730Z,23.05
2023-04-16T01:04:45.443Z,23.30
2023-04-16T01:05:49.286Z,23.58
2023-04-16T01:06:51.104Z,21.38
2023-04-16T01:07:52.572Z,23.55
2023-04-16T01:08:54.037Z,23.60
2023-04-16T01:09:56.251Z,24.17
2023-04-16T01:10:57.723Z,24.80
2023-04-16T01:11:59.157Z,22.98
2023-04-16T01:13:00.614Z,23.05
2023-04-16T01:14:02.017Z,23.10
2023-04-16T01:15:03.907Z,22.73
2023-04-16T01:16:09.672Z,21.90
2023-04-16T01:17:11.164Z,22.95
2023-04-16T01:18:20.411Z,23.15
2023-04-16T01:19:21.801Z,21.17
2023-04-16T01:20:23.306Z,22.27
2023-04-16T01:21:24.698Z,22.52
2023-04-16T01:22:29.976Z,22.63
2023-04-16T01:23:31.654Z,22.13
2023-04-16T01:24:33.960Z,21.75
2023-04-16T01:25:35.440Z,23.95
2023-04-16T01:26:36.861Z,23.00
2023-04-16T01:27:38.268Z,22.77
2023-04-16T01:28:40.461Z,21.85
2023-04-16T01:29:41.918Z,21.92
2023-04-16T01:30:43.537Z,23.33
2023-04-16T01:31:46.700Z,21.33
2023-04-16T01:32:48.424Z,21.27
2023-04-16T01:33:49.870Z,21.80
2023-04-16T01:34:51.274Z,23.13
2023-04-16T01:35:52.810Z,23.00
2023-04-16T01:36:54.296Z,23.17
2023-04-16T01:37:55.817Z,24.48
2023-04-16T01:38:57.244Z,24.13
2023-04-16T01:39:58.668Z,23.13
2023-04-16T01:41:00.251Z,22.85
2023-04-16T01:42:02.284Z,25.33
2023-04-16T01:44:05.358Z,21.92
2023-04-16T01:45:07.311Z,23.92
2023-04-16T01:47:33.368Z,22.50
2023-04-16T01:48:34.914Z,24.55
2023-04-16T01:49:36.631Z,25.38
2023-04-16T01:50:38.110Z,25.63
2023-04-16T01:51:39.480Z,25.05
2023-04-16T01:52:40.956Z,24.70
2023-04-16T01:53:42.369Z,25.80
2023-04-16T01:54:43.756Z,26.00
2023-04-16T01:55:45.230Z,25.48
2023-04-16T01:56:46.689Z,24.85
2023-04-16T01:57:48.124Z,25.63
2023-04-16T01:58:49.820Z,27.38
2023-04-16T01:59:51.240Z,25.30
2023-04-16T02:00:52.933Z,25.45
2023-04-16T02:01:54.553Z,23.58
2023-04-16T02:02:56.281Z,24.33
2023-04-16T02:03:58.185Z,23.08
2023-04-16T02:04:59.690Z,24.80
2023-04-16T02:06:03.861Z,23.73
2023-04-16T02:07:05.957Z,23.05
2023-04-16T02:08:07.494Z,23.60
2023-04-16T02:09:09.122Z,24.27
2023-04-16T02:10:10.788Z,23.55
2023-04-16T02:11:12.167Z,23.38
2023-04-16T02:12:13.732Z,23.58
2023-04-16T02:13:16.555Z,23.42
2023-04-16T02:14:18.033Z,22.88
2023-04-16T02:15:19.454Z,24.17
2023-04-16T02:16:20.905Z,25.02
2023-04-16T02:17:22.393Z,24.70
2023-04-16T02:18:23.866Z,24.23
2023-04-16T02:19:25.462Z,25.63
2023-04-16T02:20:26.915Z,24.65
2023-04-16T02:21:28.446Z,24.50
2023-04-16T02:22:29.921Z,24.83
2023-04-16T02:23:31.425Z,23.77
2023-04-16T02:24:33.011Z,23.40
2023-04-16T02:25:40.692Z,26.60
2023-04-16T02:26:42.142Z,23.83
2023-04-16T02:27:43.550Z,24.35
2023-04-16T02:28:45.003Z,24.45
2023-04-16T02:29:46.600Z,24.80
2023-04-16T02:30:48.089Z,25.30
2023-04-16T02:31:49.870Z,23.48
2023-04-16T02:32:51.338Z,25.75
2023-04-16T02:33:52.759Z,24.52
2023-04-16T02:34:54.829Z,24.63
2023-04-16T02:35:56.252Z,25.20
2023-04-16T02:36:58.348Z,25.70
2023-04-16T02:37:59.843Z,25.50
2023-04-16T02:39:01.461Z,25.88
2023-04-16T02:40:02.905Z,26.50
2023-04-16T02:41:04.369Z,24.60
2023-04-16T02:42:05.852Z,26.65
2023-04-16T02:43:07.282Z,25.88
2023-04-16T02:44:08.671Z,24.85
2023-04-16T02:45:11.487Z,25.50
2023-04-16T02:46:13.025Z,24.90
2023-04-16T02:47:14.456Z,24.10
2023-04-16T02:48:15.966Z,24.77
2023-04-16T02:49:17.404Z,23.55
2023-04-16T02:50:18.972Z,24.80
2023-04-16T02:51:20.541Z,25.83
2023-04-16T02:52:21.921Z,24.08
2023-04-16T02:53:23.345Z,26.33
2023-04-16T02:54:24.806Z,27.35
2023-04-16T02:55:26.280Z,25.58
2023-04-16T02:56:27.712Z,26.00
2023-04-16T02:57:29.314Z,25.52
2023-04-16T02:58:30.785Z,25.60
2023-04-16T02:59:32.206Z,23.83
2023-04-16T03:00:33.624Z,25.38
2023-04-16T03:01:35.104Z,24.25
2023-04-16T03:02:36.807Z,25.65
2023-04-16T03:03:38.286Z,24.85
2023-04-16T03:04:39.784Z,25.90
2023-04-16T03:05:41.544Z,25.83
2023-04-16T03:06:42.934Z,24.58
2023-04-16T03:07:44.365Z,26.80
2023-04-16T03:08:45.793Z,25.08
2023-04-16T03:09:47.345Z,26.00
2023-04-16T03:10:48.785Z,26.15
2023-04-16T03:11:50.234Z,25.67
2023-04-16T03:12:51.676Z,26.30
2023-04-16T03:13:53.778Z,25.90
2023-04-16T03:14:55.341Z,26.70
2023-04-16T03:15:56.857Z,25.38
2023-04-16T03:16:58.830Z,25.92
2023-04-16T03:18:00.511Z,25.33
2023-04-16T03:19:02.035Z,26.15
2023-04-16T03:20:05.013Z,25.80
2023-04-16T03:21:06.454Z,25.80
2023-04-16T03:22:07.908Z,25.08
2023-04-16T03:23:09.486Z,24.25
2023-04-16T03:24:11.406Z,25.15
2023-04-16T03:25:13.554Z,25.08
2023-04-16T03:26:14.975Z,25.27
2023-04-16T03:27:16.376Z,26.38
2023-04-16T03:28:17.863Z,27.60
2023-04-16T03:29:19.360Z,26.63
2023-04-16T03:30:20.766Z,26.08
2023-04-16T03:31:24.535Z,27.02
2023-04-16T03:32:26.077Z,27.55
2023-04-16T03:33:27.539Z,26.20
2023-04-16T03:34:28.938Z,26.00
2023-04-16T03:35:30.382Z,27.45
2023-04-16T03:36:32.544Z,27.45
2023-04-16T03:37:34.552Z,27.30
2023-04-16T03:39:37.616Z,25.65
2023-04-16T03:40:39.133Z,26.50
2023-04-16T03:41:40.555Z,25.92
2023-04-16T03:42:42.277Z,26.73
2023-04-16T03:43:43.780Z,26.42
2023-04-16T03:44:45.307Z,27.60
2023-04-16T03:45:47.325Z,28.58
2023-04-16T03:47:52.729Z,27.25
2023-04-16T03:48:54.354Z,28.23
2023-04-16T03:49:55.775Z,29.52
2023-04-16T03:50:57.171Z,29.75
2023-04-16T03:51:58.545Z,29.98
2023-04-16T03:52:59.970Z,29.67
2023-04-16T03:54:01.415Z,29.58
2023-04-16T03:55:04.012Z,32.15
2023-04-16T03:56:05.629Z,30.80
2023-04-16T03:57:07.046Z,32.47
2023-04-16T03:58:08.690Z,31.40
2023-04-16T03:59:10.826Z,30.38
2023-04-16T04:00:12.522Z,30.23
2023-04-16T04:01:13.950Z,30.02
2023-04-16T04:02:15.474Z,32.75
2023-04-16T04:03:17.927Z,33.35
2023-04-16T04:04:19.616Z,31.13
2023-04-16T04:05:21.193Z,31.25
2023-04-16T04:06:22.701Z,31.02
2023-04-16T04:07:24.204Z,32.35
2023-04-16T04:08:26.177Z,32.40
2023-04-16T04:10:28.910Z,28.55
2023-04-16T04:11:30.591Z,28.40
2023-04-16T04:12:31.986Z,31.10
2023-04-16T04:13:33.391Z,30.88
2023-04-16T04:14:39.615Z,30.58
2023-04-16T04:15:41.006Z,30.75
2023-04-16T04:16:42.443Z,32.95
2023-04-16T04:17:44.030Z,30.73
2023-04-16T04:18:45.552Z,30.15
2023-04-16T04:19:58.170Z,30.52
2023-04-16T04:21:07.173Z,31.67
2023-04-16T04:22:08.595Z,31.75
2023-04-16T04:23:10.032Z,33.35
2023-04-16T04:24:11.411Z,33.72
2023-04-16T04:25:13.021Z,33.95
2023-04-16T04:26:14.519Z,33.20
2023-04-16T04:27:15.971Z,32.33
2023-04-16T04:28:17.439Z,34.10
2023-04-16T04:29:18.867Z,31.48
2023-04-16T04:30:21.472Z,31.15
2023-04-16T04:31:22.943Z,30.80
2023-04-16T04:32:24.401Z,31.58
2023-04-16T04:33:26.374Z,31.25
2023-04-16T04:35:29.158Z,27.60
2023-04-16T04:36:30.944Z,30.02
2023-04-16T04:37:32.407Z,30.85
2023-04-16T04:38:33.916Z,32.10
2023-04-16T04:39:35.430Z,32.67
2023-04-16T04:40:36.858Z,32.60
2023-04-16T04:41:38.267Z,32.13
2023-04-16T04:42:39.704Z,32.65
2023-04-16T04:43:41.175Z,31.45
2023-04-16T04:44:42.586Z,31.02
2023-04-16T04:45:44.149Z,31.67
2023-04-16T04:46:45.810Z,30.98
2023-04-16T04:47:47.267Z,29.35
2023-04-16T04:48:48.778Z,29.30
2023-04-16T04:49:50.364Z,29.85
2023-04-16T04:50:52.098Z,30.20
2023-04-16T04:51:53.493Z,30.33
2023-04-16T04:52:55.021Z,30.63
2023-04-16T04:53:56.428Z,28.98
2023-04-16T04:54:57.808Z,30.67
2023-04-16T04:56:10.960Z,28.92
2023-04-16T04:57:13.400Z,30.75
2023-04-16T04:58:14.862Z,29.35
2023-04-16T04:59:16.283Z,27.83
2023-04-16T05:00:17.720Z,28.83
2023-04-16T05:01:19.185Z,30.60
2023-04-16T05:02:20.780Z,29.95
2023-04-16T05:03:22.609Z,29.23
2023-04-16T05:04:24.121Z,29.20
2023-04-16T05:05:25.576Z,30.48
2023-04-16T05:06:29.082Z,29.38
2023-04-16T05:07:31.605Z,29.65
2023-04-16T05:09:34.480Z,26.50
2023-04-16T05:10:35.889Z,28.27
2023-04-16T05:11:41.948Z,28.38
2023-04-16T05:12:43.380Z,27.75
2023-04-16T05:13:44.789Z,29.23
2023-04-16T05:14:46.187Z,30.92
2023-04-16T05:15:47.700Z,30.23
2023-04-16T05:16:49.146Z,29.73
2023-04-16T05:17:50.679Z,29.77
2023-04-16T05:18:52.338Z,30.02
2023-04-16T05:19:53.765Z,30.50
2023-04-16T05:20:55.811Z,30.50
2023-04-16T05:22:58.588Z,28.75
2023-04-16T05:24:00.329Z,28.05
2023-04-16T05:25:01.824Z,28.27
2023-04-16T05:26:03.266Z,30.55
2023-04-16T05:27:04.651Z,28.95
2023-04-16T05:28:06.045Z,29.08
2023-04-16T05:29:07.727Z,29.48
2023-04-16T05:30:09.845Z,28.35
2023-04-16T05:32:12.642Z,26.98
2023-04-16T05:33:14.128Z,28.55
2023-04-16T05:34:15.630Z,30.15
2023-04-16T05:35:17.633Z,28.52
2023-04-16T05:36:19.257Z,28.45
2023-04-16T05:37:20.709Z,29.38
2023-04-16T05:38:22.154Z,28.55
2023-04-16T05:39:23.561Z,28.17
2023-04-16T05:40:25.006Z,28.45
2023-04-16T05:41:26.426Z,28.25
2023-04-16T05:42:28.069Z,29.20
2023-04-16T05:43:29.526Z,28.92
2023-04-16T05:44:31.116Z,28.38
2023-04-16T05:45:33.385Z,28.98
2023-04-16T05:46:35.005Z,28.90
2023-04-16T05:47:36.480Z,28.17
2023-04-16T05:48:37.918Z,28.00
2023-04-16T05:49:39.334Z,26.77
2023-04-16T05:50:40.886Z,27.15
2023-04-16T05:51:42.344Z,26.00
2023-04-16T05:52:43.768Z,25.55
2023-04-16T05:53:45.404Z,25.80
2023-04-16T05:54:46.872Z,27.63
2023-04-16T05:55:48.263Z,25.35
2023-04-16T05:56:49.673Z,26.90
2023-04-16T05:57:51.087Z,26.25
2023-04-16T05:58:52.550Z,27.73
2023-04-16T05:59:53.959Z,26.92
2023-04-16T06:00:55.432Z,27.90
2023-04-16T06:01:57.528Z,27.02
2023-04-16T06:02:59.266Z,27.05
2023-04-16T06:04:01.197Z,28.67
2023-04-16T06:05:02.859Z,26.92
2023-04-16T06:06:04.466Z,27.23
2023-04-16T06:07:06.194Z,26.48
2023-04-16T06:08:07.658Z,26.35
2023-04-16T06:09:09.270Z,26.55
2023-04-16T06:10:11.004Z,25.80
2023-04-16T06:11:12.512Z,25.95
2023-04-16T06:12:13.997Z,24.50
2023-04-16T06:13:15.414Z,24.80
2023-04-16T06:14:16.855Z,24.85
2023-04-16T06:15:18.372Z,26.42
2023-04-16T06:16:19.864Z,24.95
2023-04-16T06:17:21.350Z,23.20
2023-04-16T06:18:23.677Z,25.05
2023-04-16T06:19:25.074Z,23.98
2023-04-16T06:20:26.600Z,23.95
2023-04-16T06:21:28.867Z,25.45
2023-04-16T06:22:30.446Z,22.48
2023-04-16T06:23:31.953Z,25.60
2023-04-16T06:24:34.544Z,24.75
2023-04-16T06:25:36.162Z,24.45
2023-04-16T06:26:37.591Z,26.33
2023-04-16T06:27:39.273Z,25.08
2023-04-16T06:28:40.667Z,25.27
2023-04-16T06:29:42.133Z,23.80
2023-04-16T06:30:44.725Z,24.02
2023-04-16T06:31:46.400Z,23.33
2023-04-16T06:32:48.073Z,22.90
2023-04-16T06:33:49.589Z,23.50
2023-04-16T06:34:51.434Z,22.85
2023-04-16T06:35:52.875Z,23.10
2023-04-16T06:36:54.300Z,20.95
2023-04-16T06:37:55.684Z,22.42
2023-04-16T06:38:57.088Z,22.33
2023-04-16T06:39:58.523Z,21.77
2023-04-16T06:41:00.157Z,23.77
2023-04-16T06:42:01.725Z,22.30
2023-04-16T06:43:03.481Z,23.00
2023-04-16T06:44:05.042Z,24.10
2023-04-16T06:45:07.240Z,23.48
2023-04-16T06:46:08.684Z,23.27
2023-04-16T06:47:10.319Z,22.75
2023-04-16T06:48:11.814Z,22.30
2023-04-16T06:49:13.229Z,22.83
2023-04-16T06:50:14.805Z,23.95
2023-04-16T06:51:16.406Z,23.30
2023-04-16T06:52:17.827Z,23.20
2023-04-16T06:53:19.277Z,24.48
2023-04-16T06:54:20.901Z,24.25
2023-04-16T06:55:22.369Z,22.52
2023-04-16T06:56:23.811Z,22.88
2023-04-16T06:57:25.403Z,23.40
2023-04-16T06:58:27.371Z,23.52
2023-04-16T07:00:30.392Z,20.95
2023-04-16T07:01:31.948Z,20.55
2023-04-16T07:02:33.567Z,23.70
2023-04-16T07:03:35.359Z,23.40
2023-04-16T07:04:37.223Z,23.20
2023-04-16T07:05:38.663Z,23.20
2023-04-16T07:06:40.125Z,25.20
2023-04-16T07:07:41.607Z,22.25
2023-04-16T07:08:42.990Z,23.08
2023-04-16T07:09:44.394Z,23.10
2023-04-16T07:10:45.940Z,22.42
2023-04-16T07:11:47.409Z,21.48
2023-04-16T07:12:48.934Z,23.02
2023-04-16T07:13:51.206Z,22.13
2023-04-16T07:14:52.913Z,21.50
2023-04-16T07:15:54.559Z,22.00
2023-04-16T07:16:56.058Z,21.05
2023-04-16T07:17:57.569Z,22.15
2023-04-16T07:18:59.194Z,20.85
2023-04-16T07:20:00.697Z,22.10
2023-04-16T07:21:02.220Z,23.15
2023-04-16T07:22:04.374Z,22.33
2023-04-16T07:23:06.091Z,21.85
2023-04-16T07:24:07.521Z,20.02
2023-04-16T07:25:09.371Z,23.10
2023-04-16T07:26:11.814Z,22.38
2023-04-16T07:27:13.236Z,21.85
2023-04-16T07:28:17.080Z,21.98
2023-04-16T07:29:18.611Z,20.27
2023-04-16T07:30:20.070Z,21.25
2023-04-16T07:31:21.555Z,21.17
2023-04-16T07:32:23.094Z,21.85
2023-04-16T07:33:24.616Z,20.55
2023-04-16T07:34:26.157Z,21.45
2023-04-16T07:35:27.781Z,21.60
2023-04-16T07:36:29.307Z,20.23
2023-04-16T07:37:30.915Z,21.70
2023-04-16T07:38:32.403Z,19.33
2023-04-16T07:39:33.797Z,19.98
2023-04-16T07:40:37.477Z,21.60
2023-04-16T07:41:40.637Z,19.85
2023-04-16T07:42:43.089Z,19.67
2023-04-16T07:43:44.501Z,19.00
2023-04-16T07:44:46.049Z,20.40
2023-04-16T07:45:47.473Z,21.10
2023-04-16T07:46:48.958Z,20.35
2023-04-16T07:47:50.721Z,19.90
2023-04-16T07:48:52.223Z,20.30
2023-04-16T07:49:53.755Z,20.95
2023-04-16T07:50:55.588Z,19.92
2023-04-16T07:51:57.082Z,18.27
2023-04-16T07:52:58.596Z,19.73
2023-04-16T07:54:00.043Z,18.90
2023-04-16T07:55:01.489Z,20.27
2023-04-16T07:56:02.960Z,21.27
2023-04-16T07:57:04.330Z,20.33
2023-04-16T07:58:07.225Z,20.95
2023-04-16T08:00:16.450Z,21.40
2023-04-16T08:01:17.920Z,21.40
2023-04-16T08:02:19.474Z,19.30
2023-04-16T08:03:21.197Z,20.27
2023-04-16T08:04:25.494Z,21.05
2023-04-16T08:05:27.577Z,20.73
2023-04-16T08:06:29.015Z,22.27
2023-04-16T08:07:30.458Z,19.70
2023-04-16T08:08:32.051Z,20.27
2023-04-16T08:09:34.770Z,21.17
2023-04-16T08:10:36.229Z,21.05
2023-04-16T08:11:37.663Z,20.98
2023-04-16T08:12:39.362Z,21.23
2023-04-16T08:13:41.203Z,20.33
2023-04-16T08:14:42.753Z,19.00
2023-04-16T08:15:44.250Z,20.20
2023-04-16T08:16:45.780Z,19.85
2023-04-16T08:17:47.251Z,20.92
2023-04-16T08:18:48.829Z,20.15
2023-04-16T08:19:50.313Z,19.75
2023-04-16T08:20:51.831Z,20.20
2023-04-16T08:21:53.286Z,19.38
2023-04-16T08:22:54.895Z,17.88
2023-04-16T08:23:56.413Z,16.77
2023-04-16T08:24:57.847Z,17.55
2023-04-16T08:25:59.360Z,17.65
2023-04-16T08:27:11.538Z,19.38
2023-04-16T08:28:19.027Z,17.67
2023-04-16T08:29:20.966Z,18.80
2023-04-16T08:31:24.509Z,16.88
2023-04-16T08:32:27.081Z,16.95
2023-04-16T08:33:28.647Z,17.38
2023-04-16T08:34:30.147Z,17.77
2023-04-16T08:35:31.598Z,19.35
2023-04-16T08:36:33.041Z,17.02
2023-04-16T08:37:34.466Z,18.55
2023-04-16T08:38:35.871Z,18.10
2023-04-16T08:39:37.665Z,17.20
2023-04-16T08:40:41.611Z,17.35
2023-04-16T08:41:46.311Z,18.20
2023-04-16T08:42:57.897Z,17.60
2023-04-16T08:44:04.780Z,18.55
2023-04-16T08:45:15.871Z,17.25
2023-04-16T08:46:17.863Z,19.70
2023-04-16T08:48:22.864Z,17.60
2023-04-16T08:49:25.983Z,18.77
2023-04-16T08:50:28.245Z,19.02
2023-04-16T08:51:32.541Z,19.13
2023-04-16T08:52:37.702Z,18.92
2023-04-16T08:54:03.164Z,19.73
2023-04-16T08:55:12.532Z,20.73
2023-04-16T08:56:15.808Z,20.23
2023-04-16T08:57:20.450Z,19.40
2023-04-16T08:58:22.788Z,19.90
2023-04-16T08:59:25.567Z,19.10
2023-04-16T09:00:29.266Z,18.63
2023-04-16T09:01:32.492Z,18.20
2023-04-16T09:02:34.775Z,17.92
2023-04-16T09:03:36.958Z,17.33
2023-04-16T09:04:39.624Z,18.58
2023-04-16T09:05:42.401Z,19.50
2023-04-16T09:06:45.960Z,18.95
2023-04-16T09:07:48.413Z,18.38
2023-04-16T09:08:50.361Z,19.25
2023-04-16T09:10:56.429Z,17.85
2023-04-16T09:11:57.845Z,17.48
2023-04-16T09:12:59.361Z,16.88
2023-04-16T09:14:01.500Z,17.77
2023-04-16T09:15:03.583Z,16.17
2023-04-16T09:16:07.202Z,16.90
2023-04-16T09:17:09.738Z,16.00
2023-04-16T09:18:12.233Z,17.65
2023-04-16T09:19:14.803Z,16.48
2023-04-16T09:20:16.267Z,17.05
2023-04-16T09:21:17.756Z,18.33
2023-04-16T09:22:19.251Z,18.27
2023-04-16T09:23:20.794Z,17.60
2023-04-16T09:24:22.756Z,18.48
2023-04-16T09:26:27.508Z,17.33
2023-04-16T09:27:30.829Z,17.60
2023-04-16T09:28:39.761Z,18.58
2023-04-16T09:29:41.829Z,17.55
2023-04-16T09:30:43.254Z,17.58
2023-04-16T09:32:03.206Z,17.25
2023-04-16T09:34:24.904Z,16.27
2023-04-16T09:35:26.390Z,16.00
2023-04-16T09:36:28.207Z,18.27
2023-04-16T09:37:30.867Z,18.65
2023-04-16T09:38:49.972Z,18.02
2023-04-16T09:39:58.320Z,18.15
2023-04-16T09:41:07.517Z,19.45
2023-04-16T09:42:09.396Z,20.25
2023-04-16T09:43:18.697Z,19.80
2023-04-16T09:44:20.259Z,18.48
2023-04-16T09:45:21.806Z,17.38
2023-04-16T09:46:25.129Z,18.58
2023-04-16T09:47:39.916Z,17.55
2023-04-16T09:48:41.514Z,18.63
2023-04-16T09:49:43.690Z,17.55
2023-04-16T09:50:51.716Z,17.85
2023-04-16T09:53:02.623Z,16.70
2023-04-16T09:54:07.761Z,19.55
2023-04-16T09:55:09.255Z,18.90
2023-04-16T09:56:12.752Z,17.55
2023-04-16T09:57:16.217Z,18.60
2023-04-16T09:58:20.991Z,16.98
2023-04-16T09:59:24.338Z,16.50
2023-04-16T10:00:26.082Z,17.05
2023-04-16T10:01:27.692Z,17.05
2023-04-16T10:02:30.008Z,15.73
2023-04-16T10:03:33.081Z,16.25
2023-04-16T10:04:54.791Z,16.42
2023-04-16T10:05:56.414Z,16.52
2023-04-16T10:07:05.884Z,16.70
2023-04-16T10:08:14.320Z,16.95
2023-04-16T10:09:16.111Z,15.70
2023-04-16T10:10:17.631Z,17.17
2023-04-16T10:11:20.510Z,15.73
2023-04-16T10:12:22.117Z,16.70
2023-04-16T10:13:27.717Z,16.05
2023-04-16T10:14:29.165Z,16.52
2023-04-16T10:15:31.126Z,16.83
2023-04-16T10:17:35.325Z,16.50
2023-04-16T10:18:42.130Z,17.73
2023-04-16T10:19:44.238Z,16.80
2023-04-16T10:20:46.002Z,16.05
2023-04-16T10:21:48.108Z,16.50
2023-04-16T10:22:49.978Z,17.10
2023-04-16T10:23:52.024Z,16.58
2023-04-16T10:24:54.690Z,16.45
2023-04-16T10:25:57.742Z,17.17
2023-04-16T10:27:00.130Z,16.38
2023-04-16T10:28:02.649Z,18.50
2023-04-16T10:29:06.426Z,18.00
2023-04-16T10:30:09.361Z,17.77
2023-04-16T10:31:11.789Z,18.92
2023-04-16T10:32:14.074Z,18.60
2023-04-16T10:33:15.695Z,19.17
2023-04-16T10:34:18.475Z,17.92
2023-04-16T10:35:21.433Z,17.15
2023-04-16T10:36:24.753Z,16.67
2023-04-16T10:37:31.266Z,17.27
2023-04-16T10:38:32.831Z,18.38
2023-04-16T10:39:39.050Z,17.58
2023-04-16T10:40:44.801Z,17.15
2023-04-16T10:41:46.762Z,17.40
2023-04-16T10:44:09.729Z,16.05
2023-04-16T10:45:11.513Z,16.92
2023-04-16T10:46:30.217Z,16.90
2023-04-16T10:47:31.813Z,15.98
2023-04-16T10:48:42.402Z,17.90
2023-04-16T10:49:50.947Z,15.93
2023-04-16T10:50:57.469Z,16.27
2023-04-16T10:52:02.184Z,17.77
2023-04-16T10:53:20.989Z,19.13
2023-04-16T10:54:28.107Z,17.15
2023-04-16T10:55:29.538Z,17.33
2023-04-16T10:56:35.367Z,16.70
2023-04-16T10:57:36.777Z,17.38
2023-04-16T10:58:38.368Z,17.73
2023-04-16T10:59:43.068Z,17.02
2023-04-16T11:00:51.684Z,15.95
2023-04-16T11:01:55.728Z,17.00
2023-04-16T11:02:57.399Z,17.80
2023-04-16T11:04:02.099Z,20.17
2023-04-16T11:05:04.003Z,19.15
2023-04-16T11:06:12.854Z,19.05
2023-04-16T11:07:17.304Z,17.85
2023-04-16T11:08:18.796Z,17.67
2023-04-16T11:09:41.990Z,19.20
2023-04-16T11:10:43.424Z,18.67
2023-04-16T11:11:45.005Z,18.35
2023-04-16T11:12:47.369Z,19.50
2023-04-16T11:13:48.893Z,17.85
2023-04-16T11:15:05.118Z,17.48
2023-04-16T11:16:06.949Z,17.83
2023-04-16T11:17:09.535Z,17.33
2023-04-16T11:18:11.186Z,17.10
2023-04-16T11:19:17.607Z,18.75
2023-04-16T11:20:23.938Z,16.90
2023-04-16T11:21:26.594Z,17.88
2023-04-16T11:22:28.099Z,17.90
2023-04-16T11:23:29.494Z,18.65
2023-04-16T11:24:34.173Z,18.27
2023-04-16T11:25:35.723Z,18.23
2023-04-16T11:26:37.129Z,18.95
2023-04-16T11:27:38.813Z,19.83
2023-04-16T11:28:40.411Z,19.10
2023-04-16T11:29:43.502Z,19.55
2023-04-16T11:30:46.158Z,18.17
2023-04-16T11:31:51.778Z,19.08
2023-04-16T11:32:53.532Z,18.42
2023-04-16T11:33:56.643Z,18.45
2023-04-16T11:34:59.801Z,20.63
2023-04-16T11:36:01.308Z,19.73
2023-04-16T11:37:02.916Z,18.95
2023-04-16T11:38:06.003Z,21.13
2023-04-16T11:39:07.525Z,19.92
2023-04-16T11:40:10.186Z,21.00
2023-04-16T11:41:11.657Z,20.95
2023-04-16T11:42:19.538Z,20.25
2023-04-16T11:44:25.301Z,18.92
2023-04-16T11:45:26.811Z,19.80
2023-04-16T11:46:43.153Z,20.45
2023-04-16T11:47:47.188Z,20.02
2023-04-16T11:48:53.899Z,20.50
2023-04-16T11:49:55.338Z,20.35
2023-04-16T11:50:59.581Z,19.88
2023-04-16T11:52:01.037Z,19.85
2023-04-16T11:53:06.284Z,19.08
2023-04-16T11:54:11.074Z,19.90
2023-04-16T11:55:13.422Z,20.52
2023-04-16T11:56:15.835Z,19.83
2023-04-16T11:57:24.490Z,20.00
2023-04-16T11:58:26.054Z,20.10
2023-04-16T12:00:35.022Z,19.77
2023-04-16T12:01:37.419Z,18.88
2023-04-16T12:02:45.942Z,18.98
2023-04-16T12:03:49.575Z,18.30
2023-04-16T12:04:51.762Z,17.15
2023-04-16T12:07:14.057Z,15.95
2023-04-16T12:08:30.184Z,15.90
2023-04-16T12:09:31.633Z,16.02
2023-04-16T12:10:35.323Z,16.50
2023-04-16T12:11:40.782Z,17.30
2023-04-16T12:12:42.235Z,17.60
2023-04-16T12:13:43.696Z,16.75
2023-04-16T12:14:51.618Z,16.00
2023-04-16T12:16:56.156Z,16.55
2023-04-16T12:18:08.061Z,16.23
2023-04-16T12:19:12.878Z,17.63
2023-04-16T12:20:15.863Z,17.98
2023-04-16T12:21:17.267Z,19.52
2023-04-16T12:22:28.352Z,18.48
2023-04-16T12:23:32.883Z,17.85
2023-04-16T12:24:36.826Z,18.25
2023-04-16T12:25:38.426Z,17.92
2023-04-16T12:26:44.696Z,16.63
2023-04-16T12:27:55.564Z,15.63
2023-04-16T12:29:14.570Z,16.67
2023-04-16T12:30:16.977Z,14.95
2023-04-16T12:31:20.284Z,16.42
2023-04-16T12:32:23.233Z,15.68
2023-04-16T12:33:24.895Z,15.35
2023-04-16T12:34:47.772Z,16.30
2023-04-16T12:35:47.743Z,15.23
2023-04-16T12:37:06.216Z,15.18
2023-04-16T12:38:07.734Z,14.60
2023-04-16T12:39:10.947Z,15.80
2023-04-16T12:40:12.512Z,16.65
2023-04-16T12:41:13.950Z,16.30
2023-04-16T12:42:15.569Z,16.60
2023-04-16T12:43:17.147Z,16.63
2023-04-16T12:44:18.555Z,16.48
2023-04-16T12:45:24.639Z,17.58
2023-04-16T12:46:26.045Z,17.67
2023-04-16T12:47:27.564Z,16.95
2023-04-16T12:48:29.050Z,19.30
2023-04-16T12:49:30.573Z,16.70
2023-04-16T12:50:32.599Z,17.02
2023-04-16T12:51:35.307Z,18.17
2023-04-16T12:52:36.856Z,16.73
2023-04-16T12:53:38.365Z,17.38
2023-04-16T12:54:39.858Z,15.88
2023-04-16T12:55:41.698Z,15.85
2023-04-16T12:56:43.094Z,16.40
2023-04-16T12:57:44.643Z,16.30
2023-04-16T12:58:46.290Z,16.30
2023-04-16T12:59:47.736Z,16.20
2023-04-16T13:00:49.295Z,14.02
2023-04-16T13:01:50.956Z,14.68
2023-04-16T13:02:52.550Z,15.77
2023-04-16T13:03:54.326Z,16.25
2023-04-16T13:04:55.950Z,16.40
2023-04-16T13:05:57.549Z,16.00
2023-04-16T13:06:59.434Z,16.40
2023-04-16T13:08:01.108Z,15.25
2023-04-16T13:09:02.607Z,16.08
2023-04-16T13:10:05.401Z,16.95
2023-04-16T13:11:07.921Z,16.77
2023-04-16T13:12:09.402Z,17.27
2023-04-16T13:13:10.991Z,16.80
2023-04-16T13:14:12.378Z,18.40
2023-04-16T13:15:13.893Z,18.10
2023-04-16T13:16:15.469Z,17.83
2023-04-16T13:17:16.917Z,18.98
2023-04-16T13:18:18.381Z,17.52
2023-04-16T13:19:19.932Z,17.88
2023-04-16T13:20:23.884Z,17.00
2023-04-16T13:21:27.160Z,17.40
2023-04-16T13:22:28.683Z,16.42
2023-04-16T13:23:30.528Z,18.52
2023-04-16T13:24:32.004Z,16.83
2023-04-16T13:25:33.468Z,16.67
2023-04-16T13:26:34.954Z,16.38
2023-04-16T13:27:36.364Z,17.15
2023-04-16T13:28:37.821Z,16.95
2023-04-16T13:29:39.263Z,17.05
2023-04-16T13:30:41.039Z,16.75
2023-04-16T13:31:42.565Z,16.70
2023-04-16T13:32:44.107Z,17.88
2023-04-16T13:33:45.728Z,16.77
2023-04-16T13:34:47.308Z,15.80
2023-04-16T13:35:49.855Z,17.13
2023-04-16T13:36:51.264Z,19.40
2023-04-16T13:37:53.174Z,16.17
2023-04-16T13:38:54.775Z,16.70
2023-04-16T13:39:56.627Z,16.15
2023-04-16T13:40:58.199Z,16.75
2023-04-16T13:42:00.129Z,16.45
2023-04-16T13:43:01.713Z,15.27
2023-04-16T13:44:03.309Z,17.13
2023-04-16T13:45:05.193Z,16.80
2023-04-16T13:46:06.792Z,18.08
2023-04-16T13:47:08.625Z,18.23
2023-04-16T13:48:10.230Z,17.38
2023-04-16T13:49:11.822Z,17.00
2023-04-16T13:50:13.459Z,16.83
2023-04-16T13:51:15.562Z,16.60
2023-04-16T13:52:17.115Z,17.80
2023-04-16T13:53:18.531Z,15.65
2023-04-16T13:54:19.974Z,15.77